Time;durP1;ratioP1;P1;durP2;ratioP2;P2;SDS_P1;SDS_P2;PMS_P1;PMS_P2;Temp;Humidity;BMP_temperature;BMP_pressure;BME280_temperature;BME280_humidity;BME280_pressure;Samples;Min_cycle;Max_cycle;Signal;HPM_P1;HPM_P2
2021/12/05 00:18:35;;;;;;;30.48;22.00;;;;;;;3.43;74.09;99249.34;4162736;28;20057;-87
2021/12/05 00:23:21;;;;;;;32.22;21.80;;;;;;;3.31;73.89;99223.38;4143934;28;20181;-88
2021/12/05 00:25:28;;;;;;;32.08;21.20;;;;;;;3.29;73.32;99214.75;4160009;28;20050;-88
2021/12/05 00:27:37;;;;;;;28.42;19.90;;;;;;;3.32;73.36;99214.84;4160889;28;20069;-89
2021/12/05 00:29:49;;;;;;;32.92;21.23;;;;;;;3.46;73.82;99238.25;4163084;28;20038;-88
2021/12/05 00:32:07;;;;;;;33.92;21.90;;;;;;;3.38;73.70;99240.66;4164174;28;20046;-89
2021/12/05 00:39:33;;;;;;;30.35;20.50;;;;;;;3.22;73.75;99210.31;4115561;28;20055;-88
2021/12/05 00:42:05;;;;;;;36.00;22.60;;;;;;;3.27;73.41;99221.53;4131673;28;20086;-87
2021/12/05 00:47:00;;;;;;;30.00;20.70;;;;;;;3.41;73.67;99253.56;4164241;28;20068;-86
2021/12/05 01:13:43;;;;;;;29.40;18.05;;;;;;;3.57;73.79;99261.66;4194789;27;20429;-58
2021/12/05 01:15:47;;;;;;;29.92;20.63;;;;;;;3.58;74.06;99256.53;4192659;28;20476;-57
2021/12/05 01:18:00;;;;;;;34.15;23.00;;;;;;;3.65;74.29;99265.25;4194303;28;20051;-55
2021/12/05 01:20:10;;;;;;;31.45;21.80;;;;;;;3.64;74.07;99273.81;4191946;28;20139;-59
2021/12/05 01:22:18;;;;;;;33.75;21.38;;;;;;;3.66;73.56;99277.25;4193061;28;20505;-54
2021/12/05 01:24:32;;;;;;;31.70;21.33;;;;;;;3.64;73.38;99278.94;4190974;28;20045;-59
2021/12/05 01:26:40;;;;;;;33.25;19.92;;;;;;;3.65;74.01;99280.66;4181559;28;20044;-58
2021/12/05 01:31:12;;;;;;;31.67;21.08;;;;;;;3.71;73.57;99285.97;4189865;28;20059;-56
2021/12/05 01:33:21;;;;;;;33.47;21.17;;;;;;;3.75;73.54;99292.03;4192577;28;20045;-53
2021/12/05 01:35:41;;;;;;;33.92;20.55;;;;;;;3.80;73.79;99303.28;4192178;28;20052;-55
2021/12/05 01:37:58;;;;;;;31.90;21.27;;;;;;;3.81;73.63;99305.91;4194145;28;20055;-57
2021/12/05 01:40:28;;;;;;;32.53;22.02;;;;;;;3.87;73.44;99310.31;4191217;28;20105;-56
2021/12/05 01:43:13;;;;;;;32.60;21.27;;;;;;;3.84;73.33;99317.94;4193630;28;20536;-58
2021/12/05 01:53:07;;;;;;;29.17;20.27;;;;;;;3.88;73.98;99331.75;4192540;28;20041;-56
2021/12/05 01:55:45;;;;;;;31.40;21.60;;;;;;;3.83;74.12;99332.50;4192340;28;20049;-58
2021/12/05 01:58:10;;;;;;;27.92;18.90;;;;;;;3.82;74.11;99330.75;4190810;28;20502;-59
2021/12/05 02:02:58;;;;;;;29.05;20.27;;;;;;;3.84;73.47;99329.09;4188850;28;20233;-58
2021/12/05 02:10:42;;;;;;;25.98;19.17;;;;;;;3.79;73.55;99324.69;4190837;28;20056;-56
2021/12/05 02:31:43;;;;;;;24.40;17.75;;;;;;;3.88;73.85;99363.44;4178314;28;20075;-59
2021/12/05 02:34:02;;;;;;;25.58;18.25;;;;;;;3.91;74.39;99354.94;4181215;28;20068;-58
2021/12/05 02:41:08;;;;;;;25.10;18.70;;;;;;;3.94;74.43;99370.44;4167076;28;20077;-58
2021/12/05 02:43:14;;;;;;;26.27;18.95;;;;;;;3.91;74.70;99370.38;4180250;28;20501;-55
2021/12/05 02:45:17;;;;;;;28.10;20.55;;;;;;;3.92;74.47;99384.97;4180659;28;20060;-60
2021/12/05 02:47:24;;;;;;;27.33;18.35;;;;;;;3.92;74.49;99392.69;4180706;28;20041;-58
2021/12/05 02:49:30;;;;;;;27.00;18.55;;;;;;;3.94;74.78;99381.63;4175879;28;20092;-54
2021/12/05 02:51:34;;;;;;;27.40;18.90;;;;;;;3.95;74.26;99378.19;4166247;28;20053;-60
2021/12/05 02:53:42;;;;;;;26.10;17.95;;;;;;;4.00;73.92;99373.16;4184887;22;20574;-64
2021/12/05 02:55:47;;;;;;;26.85;18.48;;;;;;;4.01;74.66;99372.31;4133383;28;20064;-64
2021/12/05 02:57:55;;;;;;;25.15;17.77;;;;;;;4.04;74.15;99361.25;4137787;28;20057;-64
2021/12/05 02:59:59;;;;;;;23.70;16.73;;;;;;;4.07;74.53;99361.31;4135715;28;20074;-63
2021/12/05 03:02:08;;;;;;;24.00;17.58;;;;;;;4.10;74.76;99358.81;4130931;28;20049;-64
2021/12/05 03:04:12;;;;;;;25.85;18.23;;;;;;;4.08;74.21;99368.19;4133541;28;20105;-65
2021/12/05 03:06:21;;;;;;;25.65;18.00;;;;;;;4.06;74.52;99375.88;4131263;28;20404;-64
2021/12/05 03:08:35;;;;;;;24.05;16.92;;;;;;;4.03;74.22;99375.81;4163260;28;20056;-56
2021/12/05 03:10:39;;;;;;;24.88;18.35;;;;;;;4.05;74.48;99379.28;4145759;28;20226;-58
2021/12/05 03:12:44;;;;;;;27.27;19.65;;;;;;;4.04;74.96;99377.53;4165282;28;20390;-59
2021/12/05 03:14:50;;;;;;;24.85;18.40;;;;;;;4.06;74.98;99383.59;4164901;28;20486;-55
2021/12/05 03:16:55;;;;;;;24.50;17.77;;;;;;;4.01;74.79;99395.47;4147003;28;20081;-59
2021/12/05 03:18:59;;;;;;;26.52;18.58;;;;;;;4.01;74.92;99395.47;4147499;28;20080;-55
2021/12/05 03:21:04;;;;;;;26.55;18.05;;;;;;;4.05;74.54;99397.28;4164803;28;20048;-57
2021/12/05 03:23:11;;;;;;;24.58;17.27;;;;;;;4.06;74.90;99393.00;4144916;28;20093;-55
2021/12/05 03:25:15;;;;;;;26.40;18.03;;;;;;;4.07;74.79;99402.47;4151121;28;20049;-56
2021/12/05 03:27:19;;;;;;;25.35;17.70;;;;;;;4.10;74.88;99405.09;4143376;28;20458;-56
2021/12/05 03:29:25;;;;;;;25.00;18.30;;;;;;;4.16;74.69;99413.84;4164842;28;20100;-59
2021/12/05 03:31:31;;;;;;;25.00;18.02;;;;;;;4.18;74.95;99429.31;4159268;28;20045;-53
2021/12/05 03:33:37;;;;;;;24.63;17.35;;;;;;;4.19;75.20;99424.19;4160568;28;20435;-56
2021/12/05 03:35:40;;;;;;;23.30;18.02;;;;;;;4.23;74.71;99427.69;4147667;28;20707;-55
2021/12/05 03:37:45;;;;;;;22.63;17.15;;;;;;;4.28;74.60;99432.94;4164919;28;20077;-56
2021/12/05 03:39:49;;;;;;;20.27;15.15;;;;;;;4.31;74.49;99428.75;4146497;28;20494;-61
2021/12/05 03:41:53;;;;;;;18.70;14.98;;;;;;;4.28;74.98;99418.38;4164084;28;20410;-59
2021/12/05 03:44:00;;;;;;;19.63;14.43;;;;;;;4.34;74.70;99417.66;4150274;28;20057;-56
2021/12/05 03:46:04;;;;;;;20.45;16.13;;;;;;;4.34;74.64;99422.81;4146720;28;20042;-60
2021/12/05 03:48:11;;;;;;;20.63;14.85;;;;;;;4.34;74.68;99427.97;4146180;28;20045;-58
2021/12/05 03:50:15;;;;;;;18.92;14.57;;;;;;;4.33;75.22;99441.66;4163494;28;20387;-58
2021/12/05 03:52:22;;;;;;;21.55;15.93;;;;;;;4.33;74.78;99450.22;4146722;28;20069;-59
2021/12/05 03:54:25;;;;;;;20.58;14.80;;;;;;;4.33;75.22;99446.78;4145737;28;20042;-58
2021/12/05 03:56:31;;;;;;;20.10;14.85;;;;;;;4.35;75.49;99445.13;4146349;28;20052;-59
2021/12/05 03:58:36;;;;;;;18.42;14.25;;;;;;;4.35;75.26;99455.41;4163885;28;20453;-58
2021/12/05 04:00:46;;;;;;;18.35;13.73;;;;;;;4.37;75.33;99452.03;4146878;28;20050;-57
2021/12/05 04:02:51;;;;;;;18.17;13.18;;;;;;;4.42;75.41;99464.16;4163990;28;20048;-58
2021/12/05 04:04:59;;;;;;;18.65;13.77;;;;;;;4.47;75.24;99468.56;4151900;28;20045;-55
2021/12/05 04:07:03;;;;;;;18.95;15.18;;;;;;;4.52;75.17;99459.22;4140304;28;20152;-59
2021/12/05 04:09:11;;;;;;;19.17;14.32;;;;;;;4.53;74.87;99463.53;4142429;28;20041;-56
2021/12/05 04:11:24;;;;;;;16.92;13.75;;;;;;;4.52;75.37;99459.22;4161499;28;20104;-59
2021/12/05 04:13:29;;;;;;;18.60;13.70;;;;;;;4.52;75.14;99468.66;4146282;28;20065;-57
2021/12/05 04:15:33;;;;;;;19.35;13.98;;;;;;;4.53;75.58;99471.28;4163968;28;20506;-57
2021/12/05 04:17:38;;;;;;;19.95;13.48;;;;;;;4.55;75.34;99463.59;4164013;28;20081;-58
2021/12/05 04:19:41;;;;;;;15.75;12.88;;;;;;;4.51;75.04;99467.81;4150817;28;20049;-57
2021/12/05 04:21:44;;;;;;;18.98;14.50;;;;;;;4.53;75.52;99476.41;4164203;28;20465;-59
2021/12/05 04:23:48;;;;;;;18.48;13.73;;;;;;;4.52;75.13;99468.66;4163256;28;20064;-55
2021/12/05 04:25:56;;;;;;;17.33;13.18;;;;;;;4.51;75.37;99477.22;4145733;28;20041;-57
2021/12/05 04:28:01;;;;;;;20.85;14.48;;;;;;;4.52;75.51;99471.25;4155625;28;20073;-57
2021/12/05 04:30:08;;;;;;;17.85;13.82;;;;;;;4.48;75.47;99472.88;4145784;28;20090;-57
2021/12/05 04:32:13;;;;;;;21.02;14.82;;;;;;;4.45;75.65;99477.94;4145909;28;20426;-60
2021/12/05 04:34:19;;;;;;;17.20;13.70;;;;;;;4.48;75.34;99470.31;4162861;28;20076;-60
2021/12/05 04:36:23;;;;;;;17.73;14.13;;;;;;;4.45;75.53;99461.63;4145875;28;20089;-60
2021/12/05 04:38:27;;;;;;;26.55;15.55;;;;;;;4.46;75.71;99458.25;4145824;28;20045;-58
2021/12/05 04:40:32;;;;;;;18.35;13.45;;;;;;;4.47;75.69;99463.41;4153457;28;20441;-61
2021/12/05 04:42:37;;;;;;;17.50;14.57;;;;;;;4.46;75.55;99458.25;4162891;28;20520;-56
2021/12/05 04:44:41;;;;;;;16.20;13.25;;;;;;;4.46;75.80;99456.53;4151447;28;20046;-59
2021/12/05 04:46:44;;;;;;;19.17;14.32;;;;;;;4.46;75.46;99460.81;4163843;28;20093;-58
2021/12/05 04:48:52;;;;;;;17.73;13.68;;;;;;;4.45;75.74;99456.50;4145915;28;20458;-59
2021/12/05 04:50:57;;;;;;;19.52;14.98;;;;;;;4.41;75.70;99471.00;4130074;28;20050;-55
2021/12/05 04:53:01;;;;;;;18.65;15.50;;;;;;;4.37;75.75;99469.19;4130506;28;20064;-56
2021/12/05 04:55:05;;;;;;;19.30;15.00;;;;;;;4.33;75.86;99472.53;4129581;28;20050;-54
2021/12/05 04:57:10;;;;;;;19.05;15.60;;;;;;;4.33;75.98;99478.53;4143590;28;20054;-54
2021/12/05 04:59:14;;;;;;;18.83;15.00;;;;;;;4.32;75.87;99491.34;4164331;28;20042;-57
2021/12/05 05:01:18;;;;;;;19.65;15.52;;;;;;;4.34;75.94;99479.41;4145404;28;20042;-55
2021/12/05 05:03:22;;;;;;;20.27;14.55;;;;;;;4.28;75.97;99474.09;4163192;28;20049;-55
2021/12/05 05:05:27;;;;;;;21.13;14.45;;;;;;;4.23;75.74;99475.72;4159823;28;20525;-55
2021/12/05 05:07:32;;;;;;;18.92;14.73;;;;;;;4.24;75.74;99477.47;4163026;28;20041;-55
2021/12/05 05:09:35;;;;;;;18.58;14.73;;;;;;;4.24;76.30;99478.31;4162986;28;20049;-53
2021/12/05 05:11:41;;;;;;;20.20;14.10;;;;;;;4.24;76.28;99480.88;4163739;28;20064;-58
2021/12/05 05:13:47;;;;;;;20.38;15.25;;;;;;;4.22;76.33;99495.44;4156489;28;20056;-55
2021/12/05 05:15:50;;;;;;;19.40;15.20;;;;;;;4.17;76.67;99503.00;4162834;28;20099;-54
2021/12/05 05:17:55;;;;;;;17.65;14.48;;;;;;;4.13;76.25;99511.50;4163117;28;20230;-56
2021/12/05 05:20:02;;;;;;;20.25;15.40;;;;;;;4.14;76.56;99518.38;4162621;28;20041;-56
2021/12/05 05:22:18;;;;;;;21.17;15.73;;;;;;;4.23;76.46;99516.88;4166280;28;20046;-54
2021/12/05 05:27:08;;;;;;;19.83;14.95;;;;;;;4.24;75.95;99504.03;4145958;28;20065;-57
2021/12/05 05:41:51;;;;;;;18.65;14.93;;;;;;;4.39;75.86;99513.81;4163041;28;20049;-55
2021/12/05 05:44:06;;;;;;;25.73;15.75;;;;;;;4.36;75.88;99518.91;4163014;28;20092;-56
2021/12/05 05:46:13;;;;;;;20.25;15.38;;;;;;;4.38;75.88;99522.41;4162694;28;20088;-58
2021/12/05 05:48:31;;;;;;;20.15;15.77;;;;;;;4.42;75.92;99523.34;4162807;28;20092;-56
2021/12/05 05:50:34;;;;;;;21.98;16.98;;;;;;;4.44;75.73;99527.69;4161348;28;20429;-57
2021/12/05 05:52:37;;;;;;;21.08;17.17;;;;;;;4.46;75.58;99530.28;4162985;28;20092;-57
2021/12/05 05:54:44;;;;;;;20.77;16.20;;;;;;;4.46;75.36;99531.16;4162785;28;20065;-56
2021/12/05 05:56:53;;;;;;;18.23;14.63;;;;;;;4.43;75.62;99527.66;4162447;28;20536;-58
2021/12/05 05:59:02;;;;;;;20.80;15.85;;;;;;;4.40;75.28;99535.31;4164267;28;20052;-54
2021/12/05 06:01:09;;;;;;;18.83;14.63;;;;;;;4.41;75.47;99537.03;4164776;28;20041;-56
2021/12/05 06:03:21;;;;;;;23.38;16.67;;;;;;;4.45;75.75;99544.00;4165635;28;20427;-56
2021/12/05 06:05:24;;;;;;;21.92;15.43;;;;;;;4.37;75.41;99542.09;4166010;28;20056;-56
2021/12/05 06:07:30;;;;;;;19.20;15.52;;;;;;;4.32;75.62;99543.72;4163511;28;20119;-56
2021/12/05 06:09:33;;;;;;;21.88;14.85;;;;;;;4.26;75.46;99546.09;4165146;28;20132;-58
2021/12/05 06:11:37;;;;;;;19.10;15.30;;;;;;;4.24;76.06;99550.34;4166075;28;20045;-55
2021/12/05 06:13:41;;;;;;;19.70;16.17;;;;;;;4.21;75.92;99545.13;4164569;28;20049;-57
2021/12/05 06:15:45;;;;;;;20.65;15.68;;;;;;;4.14;76.31;99541.53;4165620;28;20080;-55
2021/12/05 06:17:49;;;;;;;20.00;15.70;;;;;;;4.07;76.13;99534.47;4165586;28;20514;-57
2021/12/05 06:19:53;;;;;;;19.75;16.10;;;;;;;4.04;75.85;99554.13;4164960;28;20430;-57
2021/12/05 06:21:57;;;;;;;20.25;13.73;;;;;;;4.00;76.38;99553.16;4155408;28;20084;-56
2021/12/05 06:24:00;;;;;;;19.83;15.10;;;;;;;3.97;76.41;99560.78;4165853;28;20098;-54
2021/12/05 06:26:04;;;;;;;16.45;12.68;;;;;;;3.90;76.20;99564.03;4164100;28;20038;-53
2021/12/05 06:28:11;;;;;;;20.00;15.27;;;;;;;3.86;76.71;99563.09;4164971;28;20037;-56
2021/12/05 06:30:21;;;;;;;19.55;14.88;;;;;;;3.87;76.53;99563.94;4144116;28;20192;-54
2021/12/05 06:37:26;;;;;;;20.73;14.88;;;;;;;3.56;76.81;99568.25;4153518;28;20518;-55
2021/12/05 06:39:41;;;;;;;19.02;15.20;;;;;;;3.37;76.88;99570.31;4151556;28;20194;-57
2021/12/05 06:41:54;;;;;;;20.15;15.05;;;;;;;3.24;77.73;99575.91;4163774;28;20045;-56
2021/12/05 06:46:24;;;;;;;19.83;14.98;;;;;;;3.01;78.38;99588.06;4162522;28;20041;-58
2021/12/05 06:48:28;;;;;;;21.08;15.15;;;;;;;2.90;78.58;99587.75;4163956;28;20383;-55
2021/12/05 06:50:31;;;;;;;21.52;15.68;;;;;;;2.83;78.95;99584.09;4163627;28;20087;-53
2021/12/05 06:52:34;;;;;;;19.33;14.98;;;;;;;2.74;78.42;99588.97;4164742;28;20038;-57
2021/12/05 06:54:39;;;;;;;20.25;14.75;;;;;;;2.68;78.63;99599.91;4159061;28;20042;-55
2021/12/05 06:56:42;;;;;;;23.38;15.63;;;;;;;2.60;79.00;99602.22;4155352;28;20437;-58
2021/12/05 06:58:46;;;;;;;23.08;15.88;;;;;;;2.56;79.17;99604.66;4168487;28;20100;-54
2021/12/05 07:00:49;;;;;;;22.88;15.55;;;;;;;2.51;79.47;99611.31;4166204;28;20046;-56
2021/12/05 07:02:54;;;;;;;23.02;16.48;;;;;;;2.48;78.97;99616.34;4168178;28;20495;-58
2021/12/05 07:05:16;;;;;;;20.17;14.93;;;;;;;2.41;79.51;99621.28;4166916;28;20418;-58
2021/12/05 07:07:22;;;;;;;21.38;15.13;;;;;;;2.37;79.50;99621.13;4166066;28;20049;-62
2021/12/05 07:09:27;;;;;;;21.20;14.90;;;;;;;2.34;80.10;99623.59;4167603;28;20441;-61
2021/12/05 07:11:36;;;;;;;24.58;16.27;;;;;;;2.32;80.03;99625.22;4167909;28;20045;-59
2021/12/05 07:16:05;;;;;;;26.88;16.40;;;;;;;2.27;80.11;99633.63;4164163;28;20083;-59
2021/12/05 07:20:48;;;;;;;23.92;16.48;;;;;;;2.16;80.42;99641.78;4166415;28;20087;-57
2021/12/05 07:23:08;;;;;;;20.80;15.55;;;;;;;2.12;80.39;99645.94;4163187;28;20041;-57
2021/12/05 07:25:14;;;;;;;22.73;15.88;;;;;;;2.05;80.19;99646.53;4155828;28;20041;-60
2021/12/05 07:41:34;;;;;;;24.33;16.88;;;;;;;1.91;80.46;99684.47;4157166;28;20048;-63
2021/12/05 07:43:37;;;;;;;25.15;16.27;;;;;;;1.94;80.69;99687.16;4158203;28;20072;-62
2021/12/05 07:45:47;;;;;;;23.77;16.90;;;;;;;1.96;80.44;99690.66;4155352;28;20045;-61
2021/12/05 07:47:52;;;;;;;21.20;16.50;;;;;;;1.98;81.00;99703.53;4163221;28;20091;-63
2021/12/05 07:49:58;;;;;;;23.88;16.88;;;;;;;1.98;80.24;99706.94;4163332;28;20108;-62
2021/12/05 07:52:01;;;;;;;25.83;17.02;;;;;;;2.00;80.11;99709.56;4164293;28;20069;-62
2021/12/05 07:54:09;;;;;;;22.92;17.05;;;;;;;2.03;80.40;99715.69;4161417;28;20046;-61
2021/12/05 07:56:17;;;;;;;25.05;17.63;;;;;;;2.04;80.17;99711.44;4153537;28;20455;-62
2021/12/05 07:58:43;;;;;;;25.77;18.42;;;;;;;2.04;80.63;99703.75;4158965;28;20491;-62
2021/12/05 08:00:57;;;;;;;27.70;18.60;;;;;;;2.04;79.99;99712.28;4161606;28;20136;-62
2021/12/05 08:15:07;;;;;;;24.73;17.42;;;;;;;2.41;79.72;99711.06;4162149;28;20441;-57
2021/12/05 08:17:16;;;;;;;21.92;16.63;;;;;;;2.47;79.19;99714.63;4163352;28;20030;-59
2021/12/05 08:19:19;;;;;;;22.92;15.63;;;;;;;2.53;79.17;99718.31;4164584;28;20124;-61
2021/12/05 08:21:23;;;;;;;26.40;16.85;;;;;;;2.61;79.31;99726.25;4162336;28;20038;-60
2021/12/05 08:23:27;;;;;;;25.65;16.25;;;;;;;2.67;78.86;99731.59;4163486;28;20095;-59
2021/12/05 08:25:33;;;;;;;23.23;16.55;;;;;;;2.74;78.33;99738.69;4160751;28;20045;-59
2021/12/05 08:27:38;;;;;;;21.52;15.77;;;;;;;2.82;79.05;99740.63;4165483;28;20044;-58
2021/12/05 08:29:45;;;;;;;23.77;16.75;;;;;;;2.93;78.29;99745.31;4160011;28;20572;-57
2021/12/05 08:32:11;;;;;;;20.98;15.73;;;;;;;3.03;78.28;99743.91;4161568;28;20045;-57
2021/12/05 08:34:39;;;;;;;21.70;15.55;;;;;;;3.09;78.75;99749.25;4158664;28;20045;-58
2021/12/05 09:08:25;;;;;;;21.88;14.73;;;;;;;2.92;77.83;99768.34;4158368;28;20072;-58
2021/12/05 09:22:25;;;;;;;19.67;11.52;;;;;;;3.46;77.23;99814.69;4160402;28;20060;-60
2021/12/05 09:24:40;;;;;;;13.80;10.52;;;;;;;3.49;76.71;99811.34;4140381;28;20545;-59
2021/12/05 09:39:18;;;;;;;16.63;10.90;;;;;;;3.84;75.74;99833.03;4162237;28;20041;-60
2021/12/05 10:07:21;;;;;;;13.88;9.05;;;;;;;6.01;70.65;99843.97;4159455;28;20117;-61
2021/12/05 10:11:51;;;;;;;20.27;10.77;;;;;;;6.09;70.91;99843.31;4158280;28;20062;-59
2021/12/05 10:14:15;;;;;;;18.27;10.05;;;;;;;6.13;70.65;99841.66;4165013;28;20050;-62
2021/12/05 10:16:39;;;;;;;12.82;8.27;;;;;;;6.21;70.29;99847.00;4164851;28;20095;-60
2021/12/05 10:19:24;;;;;;;14.43;8.45;;;;;;;6.26;69.93;99851.44;4165210;28;20042;-58
2021/12/05 10:38:04;;;;;;;;;;;;;;;6.29;67.31;99872.16;4165587;28;20084;-61
2021/12/05 10:40:13;;;;;;;10.30;6.03;;;;;;;6.31;67.92;99869.59;4165579;28;19928;-58
2021/12/05 10:42:35;;;;;;;11.65;6.30;;;;;;;6.24;67.64;99875.47;4159758;28;20095;-58
2021/12/05 10:44:44;;;;;;;10.90;6.45;;;;;;;6.02;68.21;99876.69;4164408;28;20103;-58
2021/12/05 10:46:50;;;;;;;13.38;7.30;;;;;;;5.86;68.69;99878.00;4163863;28;20057;-63
2021/12/05 10:49:00;;;;;;;11.90;7.15;;;;;;;5.67;68.82;99880.13;4150432;28;20050;-60
2021/12/05 10:51:05;;;;;;;13.70;6.20;;;;;;;5.55;69.43;99883.28;4180346;28;20082;-60
2021/12/05 10:53:38;;;;;;;10.20;6.50;;;;;;;5.43;69.34;99880.38;4169556;28;20037;-58
2021/12/05 10:55:41;;;;;;;14.93;6.85;;;;;;;5.34;69.81;99885.28;4140491;28;20414;-62
2021/12/05 10:57:54;;;;;;;14.43;7.45;;;;;;;5.28;70.17;99880.00;4164886;28;20084;-62
2021/12/05 10:59:57;;;;;;;19.48;8.13;;;;;;;5.17;70.80;99875.44;4143999;28;20125;-60
2021/12/05 11:02:03;;;;;;;16.17;7.65;;;;;;;5.15;70.70;99882.22;4163233;28;20088;-59
2021/12/05 11:04:10;;;;;;;12.40;6.90;;;;;;;5.10;70.23;99881.25;4163030;28;20049;-59
2021/12/05 11:06:23;;;;;;;15.93;6.85;;;;;;;5.17;70.44;99888.31;4149943;28;20128;-62
2021/12/05 11:08:35;;;;;;;12.38;6.43;;;;;;;5.36;70.51;99888.78;4162531;28;20037;-59
2021/12/05 11:10:43;;;;;;;13.25;6.50;;;;;;;5.56;70.20;99882.44;4163299;28;20151;-62
2021/12/05 11:12:46;;;;;;;14.35;6.93;;;;;;;5.73;69.48;99880.28;4163012;28;20111;-62
2021/12/05 11:14:50;;;;;;;12.27;6.93;;;;;;;5.85;69.22;99876.25;4164631;28;20504;-60
2021/12/05 11:16:57;;;;;;;11.43;7.57;;;;;;;5.95;69.40;99871.31;4163961;28;20045;-59
2021/12/05 11:19:01;;;;;;;15.45;8.68;;;;;;;6.02;69.64;99876.69;4164224;28;20045;-61
2021/12/05 11:21:31;;;;;;;13.68;8.95;;;;;;;6.06;69.72;99875.91;4146520;28;21785;-63
2021/12/05 11:23:34;;;;;;;12.73;7.75;;;;;;;6.00;70.04;99879.25;4164466;28;20049;-63
2021/12/05 11:25:42;;;;;;;15.02;7.80;;;;;;;6.03;70.05;99888.72;4164650;28;20045;-64
2021/12/05 11:27:46;;;;;;;15.10;8.90;;;;;;;5.95;70.10;99881.66;4164467;28;20046;-62
2021/12/05 11:29:57;;;;;;;14.07;8.75;;;;;;;5.87;70.36;99880.63;4159799;28;20461;-63
2021/12/05 11:32:07;;;;;;;15.18;9.93;;;;;;;5.77;70.54;99881.22;4163416;28;20045;-63
2021/12/05 11:34:10;;;;;;;16.20;10.50;;;;;;;5.62;70.98;99881.72;4155883;28;20585;-64
2021/12/05 11:36:13;;;;;;;17.35;9.20;;;;;;;5.52;71.17;99892.63;4163906;28;20499;-62
2021/12/05 11:38:21;;;;;;;13.77;8.57;;;;;;;5.43;71.31;99882.94;4163161;28;20482;-62
2021/12/05 11:40:28;;;;;;;18.98;9.40;;;;;;;5.34;71.80;99890.44;4162251;28;20317;-60
2021/12/05 11:42:31;;;;;;;16.05;7.47;;;;;;;5.29;71.51;99885.19;4162506;28;20545;-61
2021/12/05 11:44:34;;;;;;;14.07;8.73;;;;;;;5.23;71.63;99882.47;4159827;28;20068;-60
2021/12/05 11:46:42;;;;;;;16.63;7.60;;;;;;;5.20;71.61;99885.81;4164589;28;20450;-65
2021/12/05 11:48:50;;;;;;;13.15;8.38;;;;;;;5.14;72.07;99883.09;4159901;28;20120;-61
2021/12/05 11:50:53;;;;;;;13.80;8.75;;;;;;;5.12;72.03;99884.72;4160793;28;20045;-62
2021/12/05 11:52:59;;;;;;;13.73;9.13;;;;;;;5.08;72.05;99882.88;4155732;28;20495;-63
2021/12/05 11:55:04;;;;;;;14.88;8.75;;;;;;;5.08;72.33;99882.88;4162118;28;20107;-62
2021/12/05 11:57:11;;;;;;;16.38;10.35;;;;;;;5.09;72.45;99879.50;4160875;28;20128;-62
2021/12/05 11:59:18;;;;;;;17.83;9.15;;;;;;;5.07;72.61;99886.31;4163340;28;20124;-62
2021/12/05 12:01:34;;;;;;;15.45;10.25;;;;;;;5.06;72.43;99884.56;4162141;28;20037;-63
2021/12/05 12:03:39;;;;;;;13.95;9.18;;;;;;;5.13;72.53;99875.31;4162848;28;20085;-61
2021/12/05 12:05:41;;;;;;;;;;;;;;;5.07;72.49;99879.47;4163990;28;20502;-60
2021/12/05 12:07:49;;;;;;;15.63;9.88;;;;;;;5.20;72.23;99880.66;4163809;28;19920;-61
2021/12/05 12:09:56;;;;;;;17.02;9.63;;;;;;;5.35;71.81;99879.31;4149414;28;20046;-61
2021/12/05 12:12:01;;;;;;;15.70;7.70;;;;;;;5.44;71.04;99870.94;4145600;28;20054;-58
2021/12/05 12:14:04;;;;;;;16.15;8.43;;;;;;;5.50;70.58;99873.69;4149559;28;20626;-62
2021/12/05 12:16:12;;;;;;;14.50;7.00;;;;;;;5.46;70.33;99875.31;4162512;28;20047;-60
2021/12/05 12:18:24;;;;;;;12.80;7.53;;;;;;;5.49;70.18;99870.25;4163103;28;20037;-62
2021/12/05 12:20:29;;;;;;;16.02;6.80;;;;;;;5.51;70.00;99872.84;4161632;28;20045;-60
2021/12/05 12:22:32;;;;;;;9.75;5.68;;;;;;;5.56;69.55;99869.56;4163349;28;20037;-59
2021/12/05 12:24:37;;;;;;;12.02;5.55;;;;;;;5.63;69.42;99870.56;4163317;28;20042;-59
2021/12/05 12:26:40;;;;;;;12.45;5.53;;;;;;;5.56;69.30;99871.25;4162643;28;20506;-64
2021/12/05 12:28:46;;;;;;;11.15;5.65;;;;;;;5.64;69.30;99871.47;4154316;28;20780;-60
2021/12/05 12:30:52;;;;;;;9.55;5.18;;;;;;;5.57;69.29;99879.00;4141406;28;20490;-62
2021/12/05 12:32:59;;;;;;;13.50;6.47;;;;;;;5.53;69.56;99884.06;4162617;28;20099;-59
2021/12/05 12:35:09;;;;;;;13.35;5.65;;;;;;;5.57;69.33;99886.75;4161292;28;20053;-57
2021/12/05 12:37:13;;;;;;;9.02;4.10;;;;;;;5.59;68.70;99885.09;4161155;28;20499;-61
2021/12/05 12:39:31;;;;;;;12.63;4.80;;;;;;;5.68;69.14;99896.47;4159971;28;20039;-61
2021/12/05 12:41:34;;;;;;;13.18;4.90;;;;;;;5.71;69.48;99886.22;4162636;28;20479;-61
2021/12/05 12:43:51;;;;;;;10.52;5.18;;;;;;;5.73;68.99;99889.72;4162402;28;20765;-60
2021/12/05 12:45:54;;;;;;;11.15;4.53;;;;;;;5.71;68.57;99888.78;4159653;28;20034;-61
2021/12/05 12:48:02;;;;;;;13.43;4.65;;;;;;;5.69;68.66;99883.59;4162662;28;20563;-61
2021/12/05 12:50:22;;;;;;;9.98;4.30;;;;;;;5.74;68.17;99886.31;4157170;28;20053;-61
2021/12/05 12:52:25;;;;;;;9.23;4.07;;;;;;;5.70;68.21;99887.06;4165452;28;20084;-61
2021/12/05 12:54:31;;;;;;;13.57;5.20;;;;;;;5.76;68.08;99887.22;4157180;28;20025;-60
2021/12/05 12:56:34;;;;;;;10.80;3.75;;;;;;;5.69;68.38;99887.91;4161425;28;20045;-61
2021/12/05 12:58:43;;;;;;;13.85;4.43;;;;;;;5.79;68.21;99886.44;4164539;28;20033;-62
2021/12/05 13:00:48;;;;;;;15.20;5.15;;;;;;;5.80;68.00;99883.00;4161632;28;20103;-59
2021/12/05 13:02:57;;;;;;;10.93;4.35;;;;;;;5.80;68.16;99877.84;4162291;28;20050;-60
2021/12/05 13:05:34;;;;;;;13.38;4.03;;;;;;;5.75;68.32;99893.19;4157438;28;20063;-61
2021/12/05 13:10:04;;;;;;;11.90;3.95;;;;;;;5.66;68.96;99899.00;4134948;28;20153;-59
2021/12/05 13:12:08;;;;;;;11.77;3.80;;;;;;;5.60;68.97;99904.88;4142863;28;20057;-59
2021/12/05 13:14:11;;;;;;;11.65;4.78;;;;;;;5.62;68.83;99907.50;4160047;28;20041;-59
2021/12/05 13:16:18;;;;;;;8.80;3.38;;;;;;;5.64;68.74;99900.69;4162072;28;20041;-59
2021/12/05 13:18:29;;;;;;;12.98;4.35;;;;;;;5.73;68.43;99910.34;4160523;28;20041;-59
2021/12/05 13:20:52;;;;;;;15.20;5.32;;;;;;;5.73;68.74;99915.50;4142883;28;20049;-58
2021/12/05 13:23:09;;;;;;;9.70;4.10;;;;;;;5.75;68.81;99916.41;4161332;28;20095;-60
2021/12/05 13:25:13;;;;;;;9.90;4.30;;;;;;;5.69;69.04;99918.84;4160925;28;20064;-59
2021/12/05 13:27:27;;;;;;;10.60;4.38;;;;;;;5.66;69.32;99923.94;4162790;28;20041;-59
2021/12/05 13:29:32;;;;;;;13.38;5.18;;;;;;;5.63;69.54;99935.03;4159430;28;20091;-59
2021/12/05 13:31:38;;;;;;;;;;;;;;;5.54;70.05;99927.94;4157529;28;20067;-58
2021/12/05 13:33:42;;;;;;;13.93;4.57;;;;;;;5.71;69.93;99932.63;4160931;28;19925;-62
2021/12/05 13:35:45;;;;;;;9.00;4.05;;;;;;;5.77;69.63;99927.66;4159667;28;20041;-59
2021/12/05 13:37:51;;;;;;;11.05;5.20;;;;;;;5.83;69.75;99937.25;4143643;28;20053;-60
2021/12/05 13:40:04;;;;;;;12.95;4.20;;;;;;;5.89;69.46;99938.25;4159536;28;20048;-60
2021/12/05 13:42:10;;;;;;;10.93;3.95;;;;;;;5.84;69.40;99945.03;4162828;28;20050;-56
2021/12/05 13:44:13;;;;;;;9.77;4.30;;;;;;;5.79;69.57;99944.03;4145884;28;20470;-58
2021/12/05 13:46:34;;;;;;;10.00;4.10;;;;;;;5.77;69.49;99944.00;4172813;28;20120;-64
2021/12/05 13:48:41;;;;;;;14.02;3.80;;;;;;;5.72;70.30;99955.03;4145822;28;20730;-60
2021/12/05 13:50:49;;;;;;;13.45;4.70;;;;;;;5.86;69.50;99956.25;4151237;28;20494;-58
2021/12/05 13:52:55;;;;;;;14.20;4.18;;;;;;;5.90;69.24;99955.50;4159492;28;20182;-57
2021/12/05 13:55:34;;;;;;;8.82;3.10;;;;;;;5.84;68.26;99960.50;4158165;28;20063;-58
2021/12/05 13:57:37;;;;;;;14.98;4.95;;;;;;;5.81;68.72;99965.59;4160257;28;20059;-57
2021/12/05 13:59:41;;;;;;;10.80;3.88;;;;;;;5.76;68.94;99972.34;4159958;28;20045;-57
2021/12/05 14:01:47;;;;;;;10.48;3.75;;;;;;;5.76;68.95;99972.34;4161917;28;20050;-57
2021/12/05 14:03:58;;;;;;;14.43;4.03;;;;;;;5.75;69.08;99975.72;4153433;28;20045;-57
2021/12/05 14:06:01;;;;;;;11.38;3.30;;;;;;;5.73;69.24;99987.72;4159894;28;20042;-60
2021/12/05 14:08:04;;;;;;;9.02;4.20;;;;;;;5.72;69.50;99985.97;4160463;28;20095;-61
2021/12/05 14:10:09;;;;;;;12.55;5.25;;;;;;;5.70;69.78;99990.22;4155727;28;20052;-57
2021/12/05 14:12:17;;;;;;;12.90;4.35;;;;;;;5.67;69.99;99987.56;4160640;28;20049;-57